sensor_id;sensor_type;location;lat;lon;timestamp;temperature;humidity
27900;DHT22;15243;50.726;7.080;2023-08-17T00:02:21;19.80;99.90
27900;DHT22;15243;50.726;7.080;2023-08-17T00:04:47;19.80;99.90
27900;DHT22;15243;50.726;7.080;2023-08-17T00:07:14;19.70;99.90
27900;DHT22;15243;50.726;7.080;2023-08-17T00:09:41;19.70;99.90
27900;DHT22;15243;50.726;7.080;2023-08-17T00:12:09;19.70;99.90
27900;DHT22;15243;50.726;7.080;2023-08-17T00:14:36;19.60;99.90
27900;DHT22;15243;50.726;7.080;2023-08-17T00:17:03;19.60;99.90
27900;DHT22;15243;50.726;7.080;2023-08-17T00:19:30;19.70;99.90
27900;DHT22;15243;50.726;7.080;2023-08-17T00:21:57;19.50;99.90
27900;DHT22;15243;50.726;7.080;2023-08-17T00:24:24;19.60;99.90
27900;DHT22;15243;50.726;7.080;2023-08-17T00:26:51;19.50;99.90
27900;DHT22;15243;50.726;7.080;2023-08-17T00:29:18;19.50;99.90
27900;DHT22;15243;50.726;7.080;2023-08-17T00:31:44;19.50;99.90
27900;DHT22;15243;50.726;7.080;2023-08-17T00:34:12;19.50;99.90
27900;DHT22;15243;50.726;7.080;2023-08-17T00:36:39;19.40;99.90
27900;DHT22;15243;50.726;7.080;2023-08-17T00:39:06;19.40;99.90
27900;DHT22;15243;50.726;7.080;2023-08-17T00:41:33;19.40;99.90
27900;DHT22;15243;50.726;7.080;2023-08-17T00:44:00;19.40;99.90
27900;DHT22;15243;50.726;7.080;2023-08-17T00:46:27;19.40;99.90
27900;DHT22;15243;50.726;7.080;2023-08-17T00:48:55;19.40;99.90
27900;DHT22;15243;50.726;7.080;2023-08-17T00:51:26;19.50;99.90
27900;DHT22;15243;50.726;7.080;2023-08-17T00:53:55;19.50;99.90
27900;DHT22;15243;50.726;7.080;2023-08-17T00:56:23;19.50;99.90
27900;DHT22;15243;50.726;7.080;2023-08-17T00:58:50;19.50;99.90
27900;DHT22;15243;50.726;7.080;2023-08-17T01:01:19;19.40;99.90
27900;DHT22;15243;50.726;7.080;2023-08-17T01:03:46;19.40;99.90
27900;DHT22;15243;50.726;7.080;2023-08-17T01:06:13;19.40;99.90
27900;DHT22;15243;50.726;7.080;2023-08-17T01:08:42;19.40;99.90
27900;DHT22;15243;50.726;7.080;2023-08-17T01:11:41;19.40;99.90
27900;DHT22;15243;50.726;7.080;2023-08-17T01:16:59;19.40;99.90
27900;DHT22;15243;50.726;7.080;2023-08-17T01:19:28;19.40;99.90
27900;DHT22;15243;50.726;7.080;2023-08-17T01:22:03;19.50;99.90
27900;DHT22;15243;50.726;7.080;2023-08-17T01:24:30;19.60;99.90
27900;DHT22;15243;50.726;7.080;2023-08-17T01:26:57;19.40;99.90
27900;DHT22;15243;50.726;7.080;2023-08-17T01:29:24;19.50;99.90
27900;DHT22;15243;50.726;7.080;2023-08-17T01:32:15;19.40;99.90
27900;DHT22;15243;50.726;7.080;2023-08-17T01:34:48;19.30;99.90
27900;DHT22;15243;50.726;7.080;2023-08-17T01:37:19;19.30;99.90
27900;DHT22;15243;50.726;7.080;2023-08-17T01:39:51;19.30;99.90
27900;DHT22;15243;50.726;7.080;2023-08-17T01:42:19;19.20;99.90
27900;DHT22;15243;50.726;7.080;2023-08-17T01:44:48;19.10;99.90
27900;DHT22;15243;50.726;7.080;2023-08-17T01:47:14;19.10;99.90
27900;DHT22;15243;50.726;7.080;2023-08-17T01:49:41;19.00;99.90
27900;DHT22;15243;50.726;7.080;2023-08-17T01:52:08;19.00;99.90
27900;DHT22;15243;50.726;7.080;2023-08-17T01:54:36;19.00;99.90
27900;DHT22;15243;50.726;7.080;2023-08-17T01:57:03;18.90;99.90
27900;DHT22;15243;50.726;7.080;2023-08-17T01:59:29;18.90;99.90
27900;DHT22;15243;50.726;7.080;2023-08-17T02:01:56;19.00;99.90
27900;DHT22;15243;50.726;7.080;2023-08-17T02:04:25;19.10;99.90
27900;DHT22;15243;50.726;7.080;2023-08-17T02:06:52;19.10;99.90
27900;DHT22;15243;50.726;7.080;2023-08-17T02:09:19;19.10;99.90
27900;DHT22;15243;50.726;7.080;2023-08-17T02:11:46;19.00;99.90
27900;DHT22;15243;50.726;7.080;2023-08-17T02:14:13;19.00;99.90
27900;DHT22;15243;50.726;7.080;2023-08-17T02:16:40;19.00;99.90
27900;DHT22;15243;50.726;7.080;2023-08-17T02:19:07;18.90;99.90
27900;DHT22;15243;50.726;7.080;2023-08-17T02:21:34;19.00;99.90
27900;DHT22;15243;50.726;7.080;2023-08-17T02:24:02;18.90;99.90
27900;DHT22;15243;50.726;7.080;2023-08-17T02:26:30;19.00;99.90
27900;DHT22;15243;50.726;7.080;2023-08-17T02:28:57;19.00;99.90
27900;DHT22;15243;50.726;7.080;2023-08-17T02:31:24;19.00;99.90
27900;DHT22;15243;50.726;7.080;2023-08-17T02:33:51;18.90;99.90
27900;DHT22;15243;50.726;7.080;2023-08-17T02:36:18;18.80;99.90
27900;DHT22;15243;50.726;7.080;2023-08-17T02:38:45;18.90;99.90
27900;DHT22;15243;50.726;7.080;2023-08-17T02:41:12;18.90;99.90
27900;DHT22;15243;50.726;7.080;2023-08-17T02:43:39;18.90;99.90
27900;DHT22;15243;50.726;7.080;2023-08-17T02:46:06;18.80;99.90
27900;DHT22;15243;50.726;7.080;2023-08-17T02:48:34;18.80;99.90
27900;DHT22;15243;50.726;7.080;2023-08-17T02:51:01;18.80;99.90
27900;DHT22;15243;50.726;7.080;2023-08-17T02:53:28;18.80;99.90
27900;DHT22;15243;50.726;7.080;2023-08-17T02:55:55;18.80;99.90
27900;DHT22;15243;50.726;7.080;2023-08-17T02:58:22;18.80;99.90
27900;DHT22;15243;50.726;7.080;2023-08-17T03:00:51;18.80;99.90
27900;DHT22;15243;50.726;7.080;2023-08-17T03:03:18;18.90;99.90
27900;DHT22;15243;50.726;7.080;2023-08-17T03:05:45;18.90;99.90
27900;DHT22;15243;50.726;7.080;2023-08-17T03:08:12;18.80;99.90
27900;DHT22;15243;50.726;7.080;2023-08-17T03:10:39;18.80;99.90
27900;DHT22;15243;50.726;7.080;2023-08-17T03:13:06;18.80;99.90
27900;DHT22;15243;50.726;7.080;2023-08-17T03:15:34;18.80;99.90
27900;DHT22;15243;50.726;7.080;2023-08-17T03:18:01;18.80;99.90
27900;DHT22;15243;50.726;7.080;2023-08-17T03:20:28;18.90;99.90
27900;DHT22;15243;50.726;7.080;2023-08-17T03:22:55;18.90;99.90
27900;DHT22;15243;50.726;7.080;2023-08-17T03:25:22;18.90;99.90
27900;DHT22;15243;50.726;7.080;2023-08-17T03:27:50;18.90;99.90
27900;DHT22;15243;50.726;7.080;2023-08-17T03:30:17;18.80;99.90
27900;DHT22;15243;50.726;7.080;2023-08-17T03:32:44;18.80;99.90
27900;DHT22;15243;50.726;7.080;2023-08-17T03:35:11;18.80;99.90
27900;DHT22;15243;50.726;7.080;2023-08-17T03:37:39;18.80;99.90
27900;DHT22;15243;50.726;7.080;2023-08-17T03:40:07;18.80;99.90
27900;DHT22;15243;50.726;7.080;2023-08-17T03:42:34;18.80;99.90
27900;DHT22;15243;50.726;7.080;2023-08-17T03:45:01;18.90;99.90
27900;DHT22;15243;50.726;7.080;2023-08-17T03:47:28;18.80;99.90
27900;DHT22;15243;50.726;7.080;2023-08-17T03:49:56;18.80;99.90
27900;DHT22;15243;50.726;7.080;2023-08-17T03:52:23;18.70;99.90
27900;DHT22;15243;50.726;7.080;2023-08-17T03:54:50;18.80;99.90
27900;DHT22;15243;50.726;7.080;2023-08-17T03:57:17;18.80;99.90
27900;DHT22;15243;50.726;7.080;2023-08-17T03:59:44;19.00;99.90
27900;DHT22;15243;50.726;7.080;2023-08-17T04:02:11;18.90;99.90
27900;DHT22;15243;50.726;7.080;2023-08-17T04:04:38;18.80;99.90
27900;DHT22;15243;50.726;7.080;2023-08-17T04:07:05;18.90;99.90
27900;DHT22;15243;50.726;7.080;2023-08-17T04:09:33;18.90;99.90
27900;DHT22;15243;50.726;7.080;2023-08-17T04:12:01;19.00;99.90
27900;DHT22;15243;50.726;7.080;2023-08-17T04:14:31;18.90;99.90
27900;DHT22;15243;50.726;7.080;2023-08-17T04:16:58;19.00;99.90
27900;DHT22;15243;50.726;7.080;2023-08-17T04:19:25;19.10;99.90
27900;DHT22;15243;50.726;7.080;2023-08-17T04:21:51;19.10;99.90
27900;DHT22;15243;50.726;7.080;2023-08-17T04:24:19;19.00;99.90
27900;DHT22;15243;50.726;7.080;2023-08-17T04:26:45;19.10;99.90
27900;DHT22;15243;50.726;7.080;2023-08-17T04:29:13;19.00;99.90
27900;DHT22;15243;50.726;7.080;2023-08-17T04:31:40;18.90;99.90
27900;DHT22;15243;50.726;7.080;2023-08-17T04:34:07;18.90;99.90
27900;DHT22;15243;50.726;7.080;2023-08-17T04:36:34;18.90;99.90
27900;DHT22;15243;50.726;7.080;2023-08-17T04:39:01;19.00;99.90
27900;DHT22;15243;50.726;7.080;2023-08-17T04:41:28;19.10;99.90
27900;DHT22;15243;50.726;7.080;2023-08-17T04:43:55;18.90;99.90
27900;DHT22;15243;50.726;7.080;2023-08-17T04:46:22;18.90;99.90
27900;DHT22;15243;50.726;7.080;2023-08-17T04:48:48;19.00;99.90
27900;DHT22;15243;50.726;7.080;2023-08-17T04:51:16;19.00;99.90
27900;DHT22;15243;50.726;7.080;2023-08-17T04:53:43;18.90;99.90
27900;DHT22;15243;50.726;7.080;2023-08-17T04:56:10;18.90;99.90
27900;DHT22;15243;50.726;7.080;2023-08-17T04:58:37;18.80;99.90
27900;DHT22;15243;50.726;7.080;2023-08-17T05:01:04;18.70;99.90
27900;DHT22;15243;50.726;7.080;2023-08-17T05:03:31;18.70;99.90
27900;DHT22;15243;50.726;7.080;2023-08-17T05:06:00;18.80;99.90
27900;DHT22;15243;50.726;7.080;2023-08-17T05:08:27;18.80;99.90
27900;DHT22;15243;50.726;7.080;2023-08-17T05:10:53;18.80;99.90
27900;DHT22;15243;50.726;7.080;2023-08-17T05:13:20;18.70;99.90
27900;DHT22;15243;50.726;7.080;2023-08-17T05:15:48;18.70;99.90
27900;DHT22;15243;50.726;7.080;2023-08-17T05:18:15;18.70;99.90
27900;DHT22;15243;50.726;7.080;2023-08-17T05:20:42;18.70;99.90
27900;DHT22;15243;50.726;7.080;2023-08-17T05:23:09;18.80;99.90
27900;DHT22;15243;50.726;7.080;2023-08-17T05:25:36;18.80;99.90
27900;DHT22;15243;50.726;7.080;2023-08-17T05:28:03;18.70;99.90
27900;DHT22;15243;50.726;7.080;2023-08-17T05:30:30;18.70;99.90
27900;DHT22;15243;50.726;7.080;2023-08-17T05:32:57;18.90;99.90
27900;DHT22;15243;50.726;7.080;2023-08-17T05:35:25;18.90;99.90
27900;DHT22;15243;50.726;7.080;2023-08-17T05:37:53;18.80;99.90
27900;DHT22;15243;50.726;7.080;2023-08-17T05:40:20;18.80;99.90
27900;DHT22;15243;50.726;7.080;2023-08-17T05:42:47;18.80;99.90
27900;DHT22;15243;50.726;7.080;2023-08-17T05:45:14;18.90;99.90
27900;DHT22;15243;50.726;7.080;2023-08-17T05:47:59;18.80;99.90
27900;DHT22;15243;50.726;7.080;2023-08-17T05:50:26;18.70;99.90
27900;DHT22;15243;50.726;7.080;2023-08-17T05:52:53;18.80;99.90
27900;DHT22;15243;50.726;7.080;2023-08-17T05:55:22;18.70;99.90
27900;DHT22;15243;50.726;7.080;2023-08-17T05:57:49;18.80;99.90
27900;DHT22;15243;50.726;7.080;2023-08-17T06:00:16;18.70;99.90
27900;DHT22;15243;50.726;7.080;2023-08-17T06:02:43;18.70;99.90
27900;DHT22;15243;50.726;7.080;2023-08-17T06:05:17;18.60;99.90
27900;DHT22;15243;50.726;7.080;2023-08-17T06:07:44;18.60;99.90
27900;DHT22;15243;50.726;7.080;2023-08-17T06:10:11;18.60;99.90
27900;DHT22;15243;50.726;7.080;2023-08-17T06:12:38;18.80;99.90
27900;DHT22;15243;50.726;7.080;2023-08-17T06:15:06;18.80;99.90
27900;DHT22;15243;50.726;7.080;2023-08-17T06:17:33;18.70;99.90
27900;DHT22;15243;50.726;7.080;2023-08-17T06:20:00;18.60;99.90
27900;DHT22;15243;50.726;7.080;2023-08-17T06:22:27;18.60;99.90
27900;DHT22;15243;50.726;7.080;2023-08-17T06:24:56;18.60;99.90
27900;DHT22;15243;50.726;7.080;2023-08-17T06:27:24;18.60;99.90
27900;DHT22;15243;50.726;7.080;2023-08-17T06:29:51;18.60;99.90
27900;DHT22;15243;50.726;7.080;2023-08-17T06:32:18;18.60;99.90
27900;DHT22;15243;50.726;7.080;2023-08-17T06:34:45;18.70;99.90
27900;DHT22;15243;50.726;7.080;2023-08-17T06:37:12;18.80;99.90
27900;DHT22;15243;50.726;7.080;2023-08-17T06:39:39;19.00;99.90
27900;DHT22;15243;50.726;7.080;2023-08-17T06:42:06;19.10;99.90
27900;DHT22;15243;50.726;7.080;2023-08-17T06:44:34;19.10;99.90
27900;DHT22;15243;50.726;7.080;2023-08-17T06:47:01;19.20;99.90
27900;DHT22;15243;50.726;7.080;2023-08-17T06:49:28;19.10;99.90
27900;DHT22;15243;50.726;7.080;2023-08-17T06:51:54;19.10;99.90
27900;DHT22;15243;50.726;7.080;2023-08-17T06:54:22;19.10;99.90
27900;DHT22;15243;50.726;7.080;2023-08-17T06:56:48;19.10;99.90
27900;DHT22;15243;50.726;7.080;2023-08-17T06:59:16;19.00;99.90
27900;DHT22;15243;50.726;7.080;2023-08-17T07:01:43;19.10;99.90
27900;DHT22;15243;50.726;7.080;2023-08-17T07:04:10;19.00;99.90
27900;DHT22;15243;50.726;7.080;2023-08-17T07:06:37;19.10;99.90
27900;DHT22;15243;50.726;7.080;2023-08-17T07:09:04;19.00;99.90
27900;DHT22;15243;50.726;7.080;2023-08-17T07:11:32;19.20;99.90
27900;DHT22;15243;50.726;7.080;2023-08-17T07:13:59;19.20;99.90
27900;DHT22;15243;50.726;7.080;2023-08-17T07:16:26;19.50;99.90
27900;DHT22;15243;50.726;7.080;2023-08-17T07:18:54;19.30;99.90
27900;DHT22;15243;50.726;7.080;2023-08-17T07:21:21;18.90;99.90
27900;DHT22;15243;50.726;7.080;2023-08-17T07:23:50;18.90;99.90
27900;DHT22;15243;50.726;7.080;2023-08-17T07:26:17;19.00;99.90
27900;DHT22;15243;50.726;7.080;2023-08-17T07:28:47;19.00;99.90
27900;DHT22;15243;50.726;7.080;2023-08-17T07:31:15;19.00;99.90
27900;DHT22;15243;50.726;7.080;2023-08-17T07:33:42;19.20;99.90
27900;DHT22;15243;50.726;7.080;2023-08-17T07:36:09;19.10;99.90
27900;DHT22;15243;50.726;7.080;2023-08-17T07:38:35;19.20;99.90
27900;DHT22;15243;50.726;7.080;2023-08-17T07:41:02;19.10;99.90
27900;DHT22;15243;50.726;7.080;2023-08-17T07:43:30;19.30;99.90
27900;DHT22;15243;50.726;7.080;2023-08-17T07:45:57;19.30;99.90
27900;DHT22;15243;50.726;7.080;2023-08-17T07:48:24;19.30;99.90
27900;DHT22;15243;50.726;7.080;2023-08-17T07:50:52;19.00;99.90
27900;DHT22;15243;50.726;7.080;2023-08-17T07:53:19;19.30;99.90
27900;DHT22;15243;50.726;7.080;2023-08-17T07:55:46;19.40;99.90
27900;DHT22;15243;50.726;7.080;2023-08-17T07:58:16;19.30;99.90
27900;DHT22;15243;50.726;7.080;2023-08-17T08:00:43;19.30;99.90
27900;DHT22;15243;50.726;7.080;2023-08-17T08:03:10;19.40;99.90
27900;DHT22;15243;50.726;7.080;2023-08-17T08:05:37;19.60;99.90
27900;DHT22;15243;50.726;7.080;2023-08-17T08:08:04;19.70;99.90
27900;DHT22;15243;50.726;7.080;2023-08-17T08:10:31;19.80;99.90
27900;DHT22;15243;50.726;7.080;2023-08-17T08:12:59;19.60;99.90
27900;DHT22;15243;50.726;7.080;2023-08-17T08:15:26;19.70;99.90
27900;DHT22;15243;50.726;7.080;2023-08-17T08:17:53;19.60;99.90
27900;DHT22;15243;50.726;7.080;2023-08-17T08:20:20;19.70;99.90
27900;DHT22;15243;50.726;7.080;2023-08-17T08:22:48;20.10;99.90
27900;DHT22;15243;50.726;7.080;2023-08-17T08:25:15;20.40;99.90
27900;DHT22;15243;50.726;7.080;2023-08-17T08:27:42;20.30;99.90
27900;DHT22;15243;50.726;7.080;2023-08-17T08:30:09;20.30;99.90
27900;DHT22;15243;50.726;7.080;2023-08-17T08:32:36;20.50;99.90
27900;DHT22;15243;50.726;7.080;2023-08-17T08:35:04;20.50;99.90
27900;DHT22;15243;50.726;7.080;2023-08-17T08:37:32;20.50;99.90
27900;DHT22;15243;50.726;7.080;2023-08-17T08:39:59;20.30;99.90
27900;DHT22;15243;50.726;7.080;2023-08-17T08:42:29;20.50;99.90
27900;DHT22;15243;50.726;7.080;2023-08-17T08:44:56;20.70;99.90
27900;DHT22;15243;50.726;7.080;2023-08-17T08:47:23;20.60;99.90
27900;DHT22;15243;50.726;7.080;2023-08-17T08:49:59;20.70;99.90
27900;DHT22;15243;50.726;7.080;2023-08-17T08:52:33;20.70;99.90
27900;DHT22;15243;50.726;7.080;2023-08-17T08:55:12;20.50;99.90
27900;DHT22;15243;50.726;7.080;2023-08-17T08:57:42;20.50;99.90
27900;DHT22;15243;50.726;7.080;2023-08-17T09:00:12;20.90;99.90
27900;DHT22;15243;50.726;7.080;2023-08-17T09:02:39;21.20;99.90
27900;DHT22;15243;50.726;7.080;2023-08-17T09:05:09;20.80;99.90
27900;DHT22;15243;50.726;7.080;2023-08-17T09:07:38;20.60;99.90
27900;DHT22;15243;50.726;7.080;2023-08-17T09:10:09;20.50;99.90
27900;DHT22;15243;50.726;7.080;2023-08-17T09:12:36;20.50;99.90
27900;DHT22;15243;50.726;7.080;2023-08-17T09:15:07;20.60;99.90
27900;DHT22;15243;50.726;7.080;2023-08-17T09:17:35;21.20;99.90
27900;DHT22;15243;50.726;7.080;2023-08-17T09:20:02;21.30;99.90
27900;DHT22;15243;50.726;7.080;2023-08-17T09:22:41;20.80;99.90
27900;DHT22;15243;50.726;7.080;2023-08-17T09:25:10;21.30;99.90
27900;DHT22;15243;50.726;7.080;2023-08-17T09:27:38;21.60;99.90
27900;DHT22;15243;50.726;7.080;2023-08-17T09:30:10;21.80;99.90
27900;DHT22;15243;50.726;7.080;2023-08-17T09:32:37;21.70;99.90
27900;DHT22;15243;50.726;7.080;2023-08-17T09:35:05;21.80;99.90
27900;DHT22;15243;50.726;7.080;2023-08-17T09:37:33;21.60;99.90
27900;DHT22;15243;50.726;7.080;2023-08-17T09:40:00;21.40;99.90
27900;DHT22;15243;50.726;7.080;2023-08-17T09:42:28;21.30;99.90
27900;DHT22;15243;50.726;7.080;2023-08-17T09:44:55;21.20;99.90
27900;DHT22;15243;50.726;7.080;2023-08-17T09:47:22;21.10;99.90
27900;DHT22;15243;50.726;7.080;2023-08-17T09:49:52;21.20;99.90
27900;DHT22;15243;50.726;7.080;2023-08-17T09:52:20;21.20;99.90
27900;DHT22;15243;50.726;7.080;2023-08-17T09:54:47;21.30;99.90
27900;DHT22;15243;50.726;7.080;2023-08-17T09:57:16;21.30;99.90
27900;DHT22;15243;50.726;7.080;2023-08-17T09:59:48;21.30;99.90
27900;DHT22;15243;50.726;7.080;2023-08-17T10:02:22;21.40;99.90
27900;DHT22;15243;50.726;7.080;2023-08-17T10:04:57;21.60;99.90
27900;DHT22;15243;50.726;7.080;2023-08-17T10:07:30;21.50;99.90
27900;DHT22;15243;50.726;7.080;2023-08-17T10:10:06;21.70;99.90
27900;DHT22;15243;50.726;7.080;2023-08-17T10:12:37;21.30;99.90
27900;DHT22;15243;50.726;7.080;2023-08-17T10:15:09;21.40;99.90
27900;DHT22;15243;50.726;7.080;2023-08-17T10:17:48;21.40;99.90
27900;DHT22;15243;50.726;7.080;2023-08-17T10:20:20;21.30;99.90
27900;DHT22;15243;50.726;7.080;2023-08-17T10:23:00;21.50;99.90
27900;DHT22;15243;50.726;7.080;2023-08-17T10:25:30;21.50;99.90
27900;DHT22;15243;50.726;7.080;2023-08-17T10:27:58;21.70;99.90
27900;DHT22;15243;50.726;7.080;2023-08-17T10:30:27;21.60;99.90
27900;DHT22;15243;50.726;7.080;2023-08-17T10:32:54;21.60;99.90
27900;DHT22;15243;50.726;7.080;2023-08-17T10:35:22;21.50;99.90
27900;DHT22;15243;50.726;7.080;2023-08-17T10:37:50;21.60;99.90
27900;DHT22;15243;50.726;7.080;2023-08-17T10:40:17;21.60;99.90
27900;DHT22;15243;50.726;7.080;2023-08-17T10:42:54;21.80;99.90
27900;DHT22;15243;50.726;7.080;2023-08-17T10:48:46;21.90;99.90
27900;DHT22;15243;50.726;7.080;2023-08-17T10:51:05;21.90;99.90
27900;DHT22;15243;50.726;7.080;2023-08-17T10:53:36;21.70;99.90
27900;DHT22;15243;50.726;7.080;2023-08-17T10:56:07;21.90;99.90
27900;DHT22;15243;50.726;7.080;2023-08-17T10:58:35;21.70;99.90
27900;DHT22;15243;50.726;7.080;2023-08-17T11:01:02;21.60;99.90
27900;DHT22;15243;50.726;7.080;2023-08-17T11:03:29;21.70;99.90
27900;DHT22;15243;50.726;7.080;2023-08-17T11:05:57;21.50;99.90
27900;DHT22;15243;50.726;7.080;2023-08-17T11:08:50;21.70;99.90
27900;DHT22;15243;50.726;7.080;2023-08-17T11:11:20;22.10;99.90
27900;DHT22;15243;50.726;7.080;2023-08-17T11:13:47;22.30;99.90
27900;DHT22;15243;50.726;7.080;2023-08-17T11:16:16;22.00;99.90
27900;DHT22;15243;50.726;7.080;2023-08-17T11:18:47;22.20;99.90
27900;DHT22;15243;50.726;7.080;2023-08-17T11:21:18;22.30;99.90
27900;DHT22;15243;50.726;7.080;2023-08-17T11:23:46;22.60;99.90
27900;DHT22;15243;50.726;7.080;2023-08-17T11:26:17;22.80;99.90
27900;DHT22;15243;50.726;7.080;2023-08-17T11:28:45;22.90;99.90
27900;DHT22;15243;50.726;7.080;2023-08-17T11:31:14;23.10;99.90
27900;DHT22;15243;50.726;7.080;2023-08-17T11:33:43;23.40;99.90
27900;DHT22;15243;50.726;7.080;2023-08-17T11:36:10;23.50;99.90
27900;DHT22;15243;50.726;7.080;2023-08-17T11:38:40;23.90;99.90
27900;DHT22;15243;50.726;7.080;2023-08-17T11:41:08;23.60;99.90
27900;DHT22;15243;50.726;7.080;2023-08-17T11:43:37;23.70;99.90
27900;DHT22;15243;50.726;7.080;2023-08-17T11:46:04;23.50;99.90
27900;DHT22;15243;50.726;7.080;2023-08-17T11:48:32;23.50;99.90
27900;DHT22;15243;50.726;7.080;2023-08-17T11:51:03;23.60;99.90
27900;DHT22;15243;50.726;7.080;2023-08-17T11:53:35;23.50;99.90
27900;DHT22;15243;50.726;7.080;2023-08-17T11:56:03;22.80;99.90
27900;DHT22;15243;50.726;7.080;2023-08-17T11:58:39;23.20;99.90
27900;DHT22;15243;50.726;7.080;2023-08-17T12:01:09;23.60;99.90
27900;DHT22;15243;50.726;7.080;2023-08-17T12:03:38;22.90;99.90
27900;DHT22;15243;50.726;7.080;2023-08-17T12:06:06;23.20;99.90
27900;DHT22;15243;50.726;7.080;2023-08-17T12:08:34;23.00;99.90
27900;DHT22;15243;50.726;7.080;2023-08-17T12:11:02;23.00;99.90
27900;DHT22;15243;50.726;7.080;2023-08-17T12:13:33;23.00;99.90
27900;DHT22;15243;50.726;7.080;2023-08-17T12:16:02;23.30;99.90
27900;DHT22;15243;50.726;7.080;2023-08-17T12:18:33;23.30;99.90
27900;DHT22;15243;50.726;7.080;2023-08-17T12:21:01;22.80;99.90
27900;DHT22;15243;50.726;7.080;2023-08-17T12:23:28;22.90;99.90
27900;DHT22;15243;50.726;7.080;2023-08-17T12:25:56;22.90;99.90
27900;DHT22;15243;50.726;7.080;2023-08-17T12:28:24;22.90;99.90
27900;DHT22;15243;50.726;7.080;2023-08-17T12:31:01;22.90;99.90
27900;DHT22;15243;50.726;7.080;2023-08-17T12:33:30;22.70;99.90
27900;DHT22;15243;50.726;7.080;2023-08-17T12:35:57;23.10;99.90
27900;DHT22;15243;50.726;7.080;2023-08-17T12:38:24;22.80;99.90
27900;DHT22;15243;50.726;7.080;2023-08-17T12:40:52;22.90;99.90
27900;DHT22;15243;50.726;7.080;2023-08-17T12:43:19;23.20;99.90
27900;DHT22;15243;50.726;7.080;2023-08-17T12:45:46;23.40;99.90
27900;DHT22;15243;50.726;7.080;2023-08-17T12:48:13;23.30;99.90
27900;DHT22;15243;50.726;7.080;2023-08-17T12:50:40;23.10;99.90
27900;DHT22;15243;50.726;7.080;2023-08-17T12:53:10;22.90;99.90
27900;DHT22;15243;50.726;7.080;2023-08-17T12:55:37;23.40;99.90
27900;DHT22;15243;50.726;7.080;2023-08-17T12:58:07;23.10;99.90
27900;DHT22;15243;50.726;7.080;2023-08-17T13:00:34;23.70;99.90
27900;DHT22;15243;50.726;7.080;2023-08-17T13:03:01;24.00;99.90
27900;DHT22;15243;50.726;7.080;2023-08-17T13:05:28;23.20;99.90
27900;DHT22;15243;50.726;7.080;2023-08-17T13:07:55;23.60;99.90
27900;DHT22;15243;50.726;7.080;2023-08-17T13:10:22;23.70;99.90
27900;DHT22;15243;50.726;7.080;2023-08-17T13:12:49;23.70;99.90
27900;DHT22;15243;50.726;7.080;2023-08-17T13:15:22;23.50;99.90
27900;DHT22;15243;50.726;7.080;2023-08-17T13:17:49;23.60;99.90
27900;DHT22;15243;50.726;7.080;2023-08-17T13:20:16;23.70;99.90
27900;DHT22;15243;50.726;7.080;2023-08-17T13:22:43;23.90;99.90
27900;DHT22;15243;50.726;7.080;2023-08-17T13:25:10;24.00;99.90
27900;DHT22;15243;50.726;7.080;2023-08-17T13:27:37;23.80;99.90
27900;DHT22;15243;50.726;7.080;2023-08-17T13:30:05;24.00;99.90
27900;DHT22;15243;50.726;7.080;2023-08-17T13:32:32;23.60;99.90
27900;DHT22;15243;50.726;7.080;2023-08-17T13:35:02;23.90;99.90
27900;DHT22;15243;50.726;7.080;2023-08-17T13:37:29;24.00;99.90
27900;DHT22;15243;50.726;7.080;2023-08-17T13:39:56;24.20;99.90
27900;DHT22;15243;50.726;7.080;2023-08-17T13:42:23;24.50;99.90
27900;DHT22;15243;50.726;7.080;2023-08-17T13:44:51;24.60;99.90
27900;DHT22;15243;50.726;7.080;2023-08-17T13:47:18;24.10;99.90
27900;DHT22;15243;50.726;7.080;2023-08-17T13:49:46;24.20;99.90
27900;DHT22;15243;50.726;7.080;2023-08-17T13:52:13;24.30;99.90
27900;DHT22;15243;50.726;7.080;2023-08-17T13:54:40;24.70;99.90
27900;DHT22;15243;50.726;7.080;2023-08-17T13:57:07;25.50;97.20
27900;DHT22;15243;50.726;7.080;2023-08-17T13:59:34;26.10;46.90
27900;DHT22;15243;50.726;7.080;2023-08-17T14:02:02;26.80;26.60
27900;DHT22;15243;50.726;7.080;2023-08-17T14:04:29;26.80;38.00
27900;DHT22;15243;50.726;7.080;2023-08-17T14:06:56;26.80;11.50
27900;DHT22;15243;50.726;7.080;2023-08-17T14:09:23;27.20;1.00
27900;DHT22;15243;50.726;7.080;2023-08-17T14:11:52;27.90;1.00
27900;DHT22;15243;50.726;7.080;2023-08-17T14:14:26;28.20;1.00
27900;DHT22;15243;50.726;7.080;2023-08-17T14:16:53;28.80;1.00
27900;DHT22;15243;50.726;7.080;2023-08-17T14:19:21;29.20;1.00
27900;DHT22;15243;50.726;7.080;2023-08-17T14:21:48;30.60;1.00
27900;DHT22;15243;50.726;7.080;2023-08-17T14:24:15;29.70;1.00
27900;DHT22;15243;50.726;7.080;2023-08-17T14:26:42;30.50;1.00
27900;DHT22;15243;50.726;7.080;2023-08-17T14:29:10;31.40;1.00
27900;DHT22;15243;50.726;7.080;2023-08-17T14:31:36;31.50;1.00
27900;DHT22;15243;50.726;7.080;2023-08-17T14:34:04;31.60;1.00
27900;DHT22;15243;50.726;7.080;2023-08-17T14:36:34;32.40;1.00
27900;DHT22;15243;50.726;7.080;2023-08-17T14:39:01;32.60;1.00
27900;DHT22;15243;50.726;7.080;2023-08-17T14:41:29;32.50;1.00
27900;DHT22;15243;50.726;7.080;2023-08-17T14:43:59;32.30;1.00
27900;DHT22;15243;50.726;7.080;2023-08-17T14:46:29;31.70;1.00
27900;DHT22;15243;50.726;7.080;2023-08-17T14:48:57;30.10;1.00
27900;DHT22;15243;50.726;7.080;2023-08-17T14:51:25;28.60;1.00
27900;DHT22;15243;50.726;7.080;2023-08-17T14:53:55;27.80;1.00
27900;DHT22;15243;50.726;7.080;2023-08-17T14:56:22;27.20;1.00
27900;DHT22;15243;50.726;7.080;2023-08-17T14:58:49;26.80;1.00
27900;DHT22;15243;50.726;7.080;2023-08-17T15:01:17;26.20;9.40
27900;DHT22;15243;50.726;7.080;2023-08-17T15:03:45;26.10;4.40
27900;DHT22;15243;50.726;7.080;2023-08-17T15:06:13;26.10;20.50
27900;DHT22;15243;50.726;7.080;2023-08-17T15:08:59;26.60;1.00
27900;DHT22;15243;50.726;7.080;2023-08-17T15:11:26;27.70;1.00
27900;DHT22;15243;50.726;7.080;2023-08-17T15:13:53;28.50;1.00
27900;DHT22;15243;50.726;7.080;2023-08-17T15:16:20;29.20;1.00
27900;DHT22;15243;50.726;7.080;2023-08-17T15:18:52;29.70;1.00
27900;DHT22;15243;50.726;7.080;2023-08-17T15:21:19;29.90;1.00
27900;DHT22;15243;50.726;7.080;2023-08-17T15:23:46;29.30;1.00
27900;DHT22;15243;50.726;7.080;2023-08-17T15:26:13;28.30;1.00
27900;DHT22;15243;50.726;7.080;2023-08-17T15:28:41;27.80;1.00
27900;DHT22;15243;50.726;7.080;2023-08-17T15:31:08;27.30;1.00
27900;DHT22;15243;50.726;7.080;2023-08-17T15:33:43;27.00;1.00
27900;DHT22;15243;50.726;7.080;2023-08-17T15:36:10;27.40;1.00
27900;DHT22;15243;50.726;7.080;2023-08-17T15:38:37;26.90;1.00
27900;DHT22;15243;50.726;7.080;2023-08-17T15:41:04;26.40;1.00
27900;DHT22;15243;50.726;7.080;2023-08-17T15:43:31;26.50;1.00
27900;DHT22;15243;50.726;7.080;2023-08-17T15:45:58;26.00;1.00